sensor_id;sensor_type;location;lat;lon;timestamp;temperature;humidity
4763;DHT22;2395;50.738;7.122;2022-07-15T00:02:14;18.30;99.90
4763;DHT22;2395;50.738;7.122;2022-07-15T00:04:43;18.30;99.90
4763;DHT22;2395;50.738;7.122;2022-07-15T00:07:10;18.20;99.90
4763;DHT22;2395;50.738;7.122;2022-07-15T00:09:38;18.20;99.90
4763;DHT22;2395;50.738;7.122;2022-07-15T00:12:22;18.30;99.90
4763;DHT22;2395;50.738;7.122;2022-07-15T00:14:50;18.30;99.90
4763;DHT22;2395;50.738;7.122;2022-07-15T00:17:17;18.10;99.90
4763;DHT22;2395;50.738;7.122;2022-07-15T00:19:45;18.20;99.90
4763;DHT22;2395;50.738;7.122;2022-07-15T00:22:13;18.10;99.90
4763;DHT22;2395;50.738;7.122;2022-07-15T00:24:40;18.10;99.90
4763;DHT22;2395;50.738;7.122;2022-07-15T00:27:07;18.00;99.90
4763;DHT22;2395;50.738;7.122;2022-07-15T00:29:34;18.00;99.90
4763;DHT22;2395;50.738;7.122;2022-07-15T00:32:01;18.00;99.90
4763;DHT22;2395;50.738;7.122;2022-07-15T00:34:28;17.90;99.90
4763;DHT22;2395;50.738;7.122;2022-07-15T00:36:56;17.90;99.90
4763;DHT22;2395;50.738;7.122;2022-07-15T00:39:23;17.80;99.90
4763;DHT22;2395;50.738;7.122;2022-07-15T00:41:51;17.80;99.90
4763;DHT22;2395;50.738;7.122;2022-07-15T00:44:18;17.80;99.90
4763;DHT22;2395;50.738;7.122;2022-07-15T00:46:45;17.80;99.90
4763;DHT22;2395;50.738;7.122;2022-07-15T00:49:12;17.70;99.90
4763;DHT22;2395;50.738;7.122;2022-07-15T00:51:42;17.60;99.90
4763;DHT22;2395;50.738;7.122;2022-07-15T00:54:13;17.50;99.90
4763;DHT22;2395;50.738;7.122;2022-07-15T00:56:44;17.50;99.90
4763;DHT22;2395;50.738;7.122;2022-07-15T00:59:13;17.50;99.90
4763;DHT22;2395;50.738;7.122;2022-07-15T01:01:42;17.60;99.90
4763;DHT22;2395;50.738;7.122;2022-07-15T01:04:12;17.60;99.90
4763;DHT22;2395;50.738;7.122;2022-07-15T01:06:40;17.50;99.90
4763;DHT22;2395;50.738;7.122;2022-07-15T01:09:08;17.40;99.90
4763;DHT22;2395;50.738;7.122;2022-07-15T01:11:37;17.50;99.90
4763;DHT22;2395;50.738;7.122;2022-07-15T01:14:05;17.40;99.90
4763;DHT22;2395;50.738;7.122;2022-07-15T01:16:32;17.20;99.90
4763;DHT22;2395;50.738;7.122;2022-07-15T01:18:59;17.20;99.90
4763;DHT22;2395;50.738;7.122;2022-07-15T01:21:28;17.20;99.90
4763;DHT22;2395;50.738;7.122;2022-07-15T01:23:55;17.20;99.90
4763;DHT22;2395;50.738;7.122;2022-07-15T01:26:22;17.00;99.90
4763;DHT22;2395;50.738;7.122;2022-07-15T01:28:50;17.00;99.90
4763;DHT22;2395;50.738;7.122;2022-07-15T01:31:17;16.90;99.90
4763;DHT22;2395;50.738;7.122;2022-07-15T01:33:44;16.90;99.90
4763;DHT22;2395;50.738;7.122;2022-07-15T01:36:11;17.10;99.90
4763;DHT22;2395;50.738;7.122;2022-07-15T01:38:39;17.00;99.90
4763;DHT22;2395;50.738;7.122;2022-07-15T01:41:06;17.10;99.90
4763;DHT22;2395;50.738;7.122;2022-07-15T01:43:33;17.20;99.90
4763;DHT22;2395;50.738;7.122;2022-07-15T01:46:00;17.00;99.90
4763;DHT22;2395;50.738;7.122;2022-07-15T01:48:27;17.00;99.90
4763;DHT22;2395;50.738;7.122;2022-07-15T01:51:12;16.90;99.90
4763;DHT22;2395;50.738;7.122;2022-07-15T01:53:40;16.90;99.90
4763;DHT22;2395;50.738;7.122;2022-07-15T01:56:07;16.80;99.90
4763;DHT22;2395;50.738;7.122;2022-07-15T01:58:34;16.80;99.90
4763;DHT22;2395;50.738;7.122;2022-07-15T02:01:01;16.70;99.90
4763;DHT22;2395;50.738;7.122;2022-07-15T02:03:28;16.60;99.90
4763;DHT22;2395;50.738;7.122;2022-07-15T02:05:55;16.50;99.90
4763;DHT22;2395;50.738;7.122;2022-07-15T02:08:22;16.50;99.90
4763;DHT22;2395;50.738;7.122;2022-07-15T02:10:50;16.50;99.90
4763;DHT22;2395;50.738;7.122;2022-07-15T02:13:18;16.70;99.90
4763;DHT22;2395;50.738;7.122;2022-07-15T02:15:45;16.60;99.90
4763;DHT22;2395;50.738;7.122;2022-07-15T02:18:11;16.60;99.90
4763;DHT22;2395;50.738;7.122;2022-07-15T02:20:38;16.60;99.90
4763;DHT22;2395;50.738;7.122;2022-07-15T02:23:05;16.80;99.90
4763;DHT22;2395;50.738;7.122;2022-07-15T02:25:33;16.90;99.90
4763;DHT22;2395;50.738;7.122;2022-07-15T02:28:03;17.00;99.90
4763;DHT22;2395;50.738;7.122;2022-07-15T02:30:33;17.00;99.90
4763;DHT22;2395;50.738;7.122;2022-07-15T02:33:02;16.90;99.90
4763;DHT22;2395;50.738;7.122;2022-07-15T02:35:30;16.90;99.90
4763;DHT22;2395;50.738;7.122;2022-07-15T02:37:58;16.80;99.90
4763;DHT22;2395;50.738;7.122;2022-07-15T02:40:26;16.90;99.90
4763;DHT22;2395;50.738;7.122;2022-07-15T02:42:57;16.80;99.90
4763;DHT22;2395;50.738;7.122;2022-07-15T02:45:29;16.80;99.90
4763;DHT22;2395;50.738;7.122;2022-07-15T02:48:00;16.70;99.90
4763;DHT22;2395;50.738;7.122;2022-07-15T02:50:28;16.90;99.90
4763;DHT22;2395;50.738;7.122;2022-07-15T02:52:55;17.10;99.90
4763;DHT22;2395;50.738;7.122;2022-07-15T02:55:22;17.00;99.90
4763;DHT22;2395;50.738;7.122;2022-07-15T02:57:49;17.10;99.90
4763;DHT22;2395;50.738;7.122;2022-07-15T03:00:17;17.00;99.90
4763;DHT22;2395;50.738;7.122;2022-07-15T03:02:47;17.00;99.90
4763;DHT22;2395;50.738;7.122;2022-07-15T03:05:15;16.90;99.90
4763;DHT22;2395;50.738;7.122;2022-07-15T03:07:43;16.80;99.90
4763;DHT22;2395;50.738;7.122;2022-07-15T03:10:11;16.80;99.90
4763;DHT22;2395;50.738;7.122;2022-07-15T03:12:39;16.70;99.90
4763;DHT22;2395;50.738;7.122;2022-07-15T03:15:07;16.70;99.90
4763;DHT22;2395;50.738;7.122;2022-07-15T03:17:35;16.60;99.90
4763;DHT22;2395;50.738;7.122;2022-07-15T03:20:05;16.80;99.90
4763;DHT22;2395;50.738;7.122;2022-07-15T03:22:32;16.90;99.90
4763;DHT22;2395;50.738;7.122;2022-07-15T03:25:00;16.80;99.90
4763;DHT22;2395;50.738;7.122;2022-07-15T03:27:27;16.80;99.90
4763;DHT22;2395;50.738;7.122;2022-07-15T03:29:54;16.80;99.90
4763;DHT22;2395;50.738;7.122;2022-07-15T03:32:21;16.80;99.90
4763;DHT22;2395;50.738;7.122;2022-07-15T03:34:48;16.70;99.90
4763;DHT22;2395;50.738;7.122;2022-07-15T03:37:16;16.80;99.90
4763;DHT22;2395;50.738;7.122;2022-07-15T03:39:44;16.80;99.90
4763;DHT22;2395;50.738;7.122;2022-07-15T03:42:11;16.70;99.90
4763;DHT22;2395;50.738;7.122;2022-07-15T03:44:38;16.70;99.90
4763;DHT22;2395;50.738;7.122;2022-07-15T03:47:05;16.60;99.90
4763;DHT22;2395;50.738;7.122;2022-07-15T03:49:32;16.60;99.90
4763;DHT22;2395;50.738;7.122;2022-07-15T03:51:59;16.50;99.90
4763;DHT22;2395;50.738;7.122;2022-07-15T03:54:28;16.50;99.90
4763;DHT22;2395;50.738;7.122;2022-07-15T03:56:55;16.50;99.90
4763;DHT22;2395;50.738;7.122;2022-07-15T03:59:22;16.40;99.90
4763;DHT22;2395;50.738;7.122;2022-07-15T04:01:49;16.50;99.90
4763;DHT22;2395;50.738;7.122;2022-07-15T04:04:17;16.60;99.90
4763;DHT22;2395;50.738;7.122;2022-07-15T04:06:45;16.70;99.90
4763;DHT22;2395;50.738;7.122;2022-07-15T04:09:12;16.80;99.90
4763;DHT22;2395;50.738;7.122;2022-07-15T04:11:40;16.70;99.90
4763;DHT22;2395;50.738;7.122;2022-07-15T04:14:09;17.00;99.90
4763;DHT22;2395;50.738;7.122;2022-07-15T04:16:37;17.00;99.90
4763;DHT22;2395;50.738;7.122;2022-07-15T04:19:04;16.80;99.90
4763;DHT22;2395;50.738;7.122;2022-07-15T04:21:32;16.90;99.90
4763;DHT22;2395;50.738;7.122;2022-07-15T04:23:59;17.10;99.90
4763;DHT22;2395;50.738;7.122;2022-07-15T04:26:27;17.20;99.90
4763;DHT22;2395;50.738;7.122;2022-07-15T04:28:56;17.20;99.90
4763;DHT22;2395;50.738;7.122;2022-07-15T04:31:23;17.40;99.90
4763;DHT22;2395;50.738;7.122;2022-07-15T04:33:50;17.40;99.90
4763;DHT22;2395;50.738;7.122;2022-07-15T04:36:17;17.60;99.90
4763;DHT22;2395;50.738;7.122;2022-07-15T04:38:44;17.90;99.90
4763;DHT22;2395;50.738;7.122;2022-07-15T04:41:11;17.80;99.90
4763;DHT22;2395;50.738;7.122;2022-07-15T04:43:39;17.70;99.90
4763;DHT22;2395;50.738;7.122;2022-07-15T04:46:07;18.10;99.90
4763;DHT22;2395;50.738;7.122;2022-07-15T04:48:34;17.90;99.90
4763;DHT22;2395;50.738;7.122;2022-07-15T04:51:19;17.90;99.90
4763;DHT22;2395;50.738;7.122;2022-07-15T04:54:16;17.60;99.90
4763;DHT22;2395;50.738;7.122;2022-07-15T04:56:50;17.90;99.90
4763;DHT22;2395;50.738;7.122;2022-07-15T04:59:17;17.80;99.90
4763;DHT22;2395;50.738;7.122;2022-07-15T05:01:49;17.70;99.90
4763;DHT22;2395;50.738;7.122;2022-07-15T05:04:16;17.40;99.90
4763;DHT22;2395;50.738;7.122;2022-07-15T05:06:43;17.60;99.90
4763;DHT22;2395;50.738;7.122;2022-07-15T05:09:13;17.70;99.90
4763;DHT22;2395;50.738;7.122;2022-07-15T05:11:41;17.90;99.90
4763;DHT22;2395;50.738;7.122;2022-07-15T05:14:08;17.80;99.90
4763;DHT22;2395;50.738;7.122;2022-07-15T05:16:38;18.00;99.90
4763;DHT22;2395;50.738;7.122;2022-07-15T05:19:07;18.10;99.90
4763;DHT22;2395;50.738;7.122;2022-07-15T05:21:35;18.00;99.90
4763;DHT22;2395;50.738;7.122;2022-07-15T05:24:02;18.20;99.90
4763;DHT22;2395;50.738;7.122;2022-07-15T05:26:30;18.10;99.90
4763;DHT22;2395;50.738;7.122;2022-07-15T05:28:57;18.20;99.90
4763;DHT22;2395;50.738;7.122;2022-07-15T05:31:24;18.20;99.90
4763;DHT22;2395;50.738;7.122;2022-07-15T05:33:52;18.00;99.90
4763;DHT22;2395;50.738;7.122;2022-07-15T05:36:21;17.80;99.90
4763;DHT22;2395;50.738;7.122;2022-07-15T05:38:48;17.60;99.90
4763;DHT22;2395;50.738;7.122;2022-07-15T05:41:15;17.70;99.90
4763;DHT22;2395;50.738;7.122;2022-07-15T05:43:42;18.20;99.90
4763;DHT22;2395;50.738;7.122;2022-07-15T05:46:09;18.30;99.90
4763;DHT22;2395;50.738;7.122;2022-07-15T05:48:38;18.10;99.90
4763;DHT22;2395;50.738;7.122;2022-07-15T05:51:06;18.30;99.90
4763;DHT22;2395;50.738;7.122;2022-07-15T05:53:35;18.20;99.90
4763;DHT22;2395;50.738;7.122;2022-07-15T05:56:02;18.10;99.90
4763;DHT22;2395;50.738;7.122;2022-07-15T05:58:29;18.00;99.90
4763;DHT22;2395;50.738;7.122;2022-07-15T06:00:56;17.80;99.90
4763;DHT22;2395;50.738;7.122;2022-07-15T06:03:23;17.60;99.90
4763;DHT22;2395;50.738;7.122;2022-07-15T06:05:51;17.70;99.90
4763;DHT22;2395;50.738;7.122;2022-07-15T06:08:18;17.70;99.90
4763;DHT22;2395;50.738;7.122;2022-07-15T06:10:47;17.50;99.90
4763;DHT22;2395;50.738;7.122;2022-07-15T06:13:14;17.30;99.90
4763;DHT22;2395;50.738;7.122;2022-07-15T06:15:41;17.30;99.90
4763;DHT22;2395;50.738;7.122;2022-07-15T06:18:08;17.50;99.90
4763;DHT22;2395;50.738;7.122;2022-07-15T06:20:35;17.70;99.90
4763;DHT22;2395;50.738;7.122;2022-07-15T06:23:02;17.90;99.90
4763;DHT22;2395;50.738;7.122;2022-07-15T06:25:30;18.00;99.90
4763;DHT22;2395;50.738;7.122;2022-07-15T06:27:58;18.30;99.90
4763;DHT22;2395;50.738;7.122;2022-07-15T06:30:26;18.50;99.90
4763;DHT22;2395;50.738;7.122;2022-07-15T06:32:54;19.00;99.90
4763;DHT22;2395;50.738;7.122;2022-07-15T06:35:21;19.00;99.90
4763;DHT22;2395;50.738;7.122;2022-07-15T06:37:49;19.10;99.90
4763;DHT22;2395;50.738;7.122;2022-07-15T06:40:16;19.50;99.90
4763;DHT22;2395;50.738;7.122;2022-07-15T06:42:43;19.60;99.90
4763;DHT22;2395;50.738;7.122;2022-07-15T06:45:12;19.70;99.90
4763;DHT22;2395;50.738;7.122;2022-07-15T06:47:40;19.30;99.90
4763;DHT22;2395;50.738;7.122;2022-07-15T06:50:08;19.00;99.90
4763;DHT22;2395;50.738;7.122;2022-07-15T06:52:36;19.00;99.90
4763;DHT22;2395;50.738;7.122;2022-07-15T06:55:04;18.80;99.90
4763;DHT22;2395;50.738;7.122;2022-07-15T06:57:32;18.80;99.90
4763;DHT22;2395;50.738;7.122;2022-07-15T07:00:00;19.00;99.90
4763;DHT22;2395;50.738;7.122;2022-07-15T07:02:29;19.40;99.90
4763;DHT22;2395;50.738;7.122;2022-07-15T07:04:57;19.50;99.90
4763;DHT22;2395;50.738;7.122;2022-07-15T07:07:24;19.20;99.90
4763;DHT22;2395;50.738;7.122;2022-07-15T07:09:51;19.00;99.90
4763;DHT22;2395;50.738;7.122;2022-07-15T07:12:18;19.00;99.90
4763;DHT22;2395;50.738;7.122;2022-07-15T07:14:45;19.20;99.90
4763;DHT22;2395;50.738;7.122;2022-07-15T07:17:12;19.10;99.90
4763;DHT22;2395;50.738;7.122;2022-07-15T07:19:40;18.90;99.90
4763;DHT22;2395;50.738;7.122;2022-07-15T07:22:07;18.90;99.90
4763;DHT22;2395;50.738;7.122;2022-07-15T07:24:35;18.90;99.90
4763;DHT22;2395;50.738;7.122;2022-07-15T07:27:02;19.30;99.90
4763;DHT22;2395;50.738;7.122;2022-07-15T07:29:30;19.50;99.90
4763;DHT22;2395;50.738;7.122;2022-07-15T07:31:58;19.80;99.90
4763;DHT22;2395;50.738;7.122;2022-07-15T07:34:25;19.70;99.90
4763;DHT22;2395;50.738;7.122;2022-07-15T07:36:53;19.70;99.90
4763;DHT22;2395;50.738;7.122;2022-07-15T07:39:20;19.60;99.90
4763;DHT22;2395;50.738;7.122;2022-07-15T07:41:47;19.70;99.90
4763;DHT22;2395;50.738;7.122;2022-07-15T07:44:18;19.80;99.90
4763;DHT22;2395;50.738;7.122;2022-07-15T07:46:45;19.80;99.90
4763;DHT22;2395;50.738;7.122;2022-07-15T07:49:12;19.70;99.90
4763;DHT22;2395;50.738;7.122;2022-07-15T07:51:40;20.00;99.90
4763;DHT22;2395;50.738;7.122;2022-07-15T07:54:09;20.00;99.90
4763;DHT22;2395;50.738;7.122;2022-07-15T07:56:37;20.30;99.90
4763;DHT22;2395;50.738;7.122;2022-07-15T07:59:04;20.20;99.90
4763;DHT22;2395;50.738;7.122;2022-07-15T08:01:31;19.90;99.90
4763;DHT22;2395;50.738;7.122;2022-07-15T08:03:59;19.70;99.90
4763;DHT22;2395;50.738;7.122;2022-07-15T08:06:26;19.70;99.90
4763;DHT22;2395;50.738;7.122;2022-07-15T08:08:54;19.90;99.90
4763;DHT22;2395;50.738;7.122;2022-07-15T08:11:22;19.90;99.90
4763;DHT22;2395;50.738;7.122;2022-07-15T08:13:49;20.00;99.90
4763;DHT22;2395;50.738;7.122;2022-07-15T08:16:16;20.30;99.90
4763;DHT22;2395;50.738;7.122;2022-07-15T08:18:44;20.40;99.90
4763;DHT22;2395;50.738;7.122;2022-07-15T08:21:11;20.40;99.90
4763;DHT22;2395;50.738;7.122;2022-07-15T08:23:39;20.30;99.90
4763;DHT22;2395;50.738;7.122;2022-07-15T08:26:06;20.10;99.90
4763;DHT22;2395;50.738;7.122;2022-07-15T08:28:37;20.10;99.90
4763;DHT22;2395;50.738;7.122;2022-07-15T08:31:04;20.30;99.90
4763;DHT22;2395;50.738;7.122;2022-07-15T08:33:31;20.30;99.90
4763;DHT22;2395;50.738;7.122;2022-07-15T08:35:58;20.40;99.90
4763;DHT22;2395;50.738;7.122;2022-07-15T08:38:25;20.30;99.90
4763;DHT22;2395;50.738;7.122;2022-07-15T08:40:52;20.20;99.90
4763;DHT22;2395;50.738;7.122;2022-07-15T08:43:22;20.40;99.90
4763;DHT22;2395;50.738;7.122;2022-07-15T08:45:51;20.20;99.90
4763;DHT22;2395;50.738;7.122;2022-07-15T08:48:22;20.10;99.90
4763;DHT22;2395;50.738;7.122;2022-07-15T08:50:54;20.40;99.90
4763;DHT22;2395;50.738;7.122;2022-07-15T08:53:22;20.30;99.90
4763;DHT22;2395;50.738;7.122;2022-07-15T08:55:49;20.50;99.90
4763;DHT22;2395;50.738;7.122;2022-07-15T08:58:17;20.60;99.90
4763;DHT22;2395;50.738;7.122;2022-07-15T09:00:44;20.90;99.90
4763;DHT22;2395;50.738;7.122;2022-07-15T09:03:12;21.10;99.90
4763;DHT22;2395;50.738;7.122;2022-07-15T09:05:40;21.10;99.90
4763;DHT22;2395;50.738;7.122;2022-07-15T09:08:08;20.80;99.90
4763;DHT22;2395;50.738;7.122;2022-07-15T09:10:48;21.20;99.90
4763;DHT22;2395;50.738;7.122;2022-07-15T09:13:28;21.60;99.90
4763;DHT22;2395;50.738;7.122;2022-07-15T09:15:59;21.30;99.90
4763;DHT22;2395;50.738;7.122;2022-07-15T09:18:30;21.10;99.90
4763;DHT22;2395;50.738;7.122;2022-07-15T09:21:00;20.60;99.90
4763;DHT22;2395;50.738;7.122;2022-07-15T09:23:29;20.60;99.90
4763;DHT22;2395;50.738;7.122;2022-07-15T09:26:00;20.90;99.90
4763;DHT22;2395;50.738;7.122;2022-07-15T09:28:50;20.90;99.90
4763;DHT22;2395;50.738;7.122;2022-07-15T09:31:27;20.60;99.90
4763;DHT22;2395;50.738;7.122;2022-07-15T09:34:14;20.50;99.90
4763;DHT22;2395;50.738;7.122;2022-07-15T09:36:44;20.50;99.90
4763;DHT22;2395;50.738;7.122;2022-07-15T09:39:17;21.10;99.90
4763;DHT22;2395;50.738;7.122;2022-07-15T09:41:45;21.40;99.90
4763;DHT22;2395;50.738;7.122;2022-07-15T09:44:14;21.80;99.90
4763;DHT22;2395;50.738;7.122;2022-07-15T09:46:44;21.70;99.90
4763;DHT22;2395;50.738;7.122;2022-07-15T09:49:15;21.30;99.90
4763;DHT22;2395;50.738;7.122;2022-07-15T09:51:46;21.40;99.90
4763;DHT22;2395;50.738;7.122;2022-07-15T09:54:15;21.50;99.90
4763;DHT22;2395;50.738;7.122;2022-07-15T09:56:44;21.70;99.90
4763;DHT22;2395;50.738;7.122;2022-07-15T09:59:12;21.90;99.90
4763;DHT22;2395;50.738;7.122;2022-07-15T10:01:40;21.60;99.90
4763;DHT22;2395;50.738;7.122;2022-07-15T10:04:09;21.90;99.90
4763;DHT22;2395;50.738;7.122;2022-07-15T10:06:38;21.70;99.90
4763;DHT22;2395;50.738;7.122;2022-07-15T10:09:07;21.90;99.90
4763;DHT22;2395;50.738;7.122;2022-07-15T10:11:38;21.80;99.90
4763;DHT22;2395;50.738;7.122;2022-07-15T10:20:55;22.10;99.30
4763;DHT22;2395;50.738;7.122;2022-07-15T10:24:01;22.20;99.00
4763;DHT22;2395;50.738;7.122;2022-07-15T10:26:48;23.10;99.50
4763;DHT22;2395;50.738;7.122;2022-07-15T10:29:23;23.10;98.50
4763;DHT22;2395;50.738;7.122;2022-07-15T10:31:56;22.80;99.00
4763;DHT22;2395;50.738;7.122;2022-07-15T10:34:29;23.30;98.00
4763;DHT22;2395;50.738;7.122;2022-07-15T10:37:06;23.40;96.60
4763;DHT22;2395;50.738;7.122;2022-07-15T10:39:55;23.40;97.10
4763;DHT22;2395;50.738;7.122;2022-07-15T10:42:56;23.70;97.00
4763;DHT22;2395;50.738;7.122;2022-07-15T10:45:26;23.50;96.10
4763;DHT22;2395;50.738;7.122;2022-07-15T10:48:25;24.10;96.70
4763;DHT22;2395;50.738;7.122;2022-07-15T10:50:53;23.90;95.10
4763;DHT22;2395;50.738;7.122;2022-07-15T10:53:22;23.40;94.70
4763;DHT22;2395;50.738;7.122;2022-07-15T10:55:52;23.00;95.60
4763;DHT22;2395;50.738;7.122;2022-07-15T10:58:19;23.00;96.50
4763;DHT22;2395;50.738;7.122;2022-07-15T11:00:47;22.70;96.10
4763;DHT22;2395;50.738;7.122;2022-07-15T11:03:16;23.10;96.50
4763;DHT22;2395;50.738;7.122;2022-07-15T11:06:03;23.40;95.40
4763;DHT22;2395;50.738;7.122;2022-07-15T11:08:53;23.50;95.50
4763;DHT22;2395;50.738;7.122;2022-07-15T11:11:57;23.50;94.60
4763;DHT22;2395;50.738;7.122;2022-07-15T11:14:45;23.90;94.50
4763;DHT22;2395;50.738;7.122;2022-07-15T11:17:16;23.50;94.00
4763;DHT22;2395;50.738;7.122;2022-07-15T11:19:50;23.20;95.30
4763;DHT22;2395;50.738;7.122;2022-07-15T11:22:21;24.20;95.00
4763;DHT22;2395;50.738;7.122;2022-07-15T11:24:49;24.50;93.50
4763;DHT22;2395;50.738;7.122;2022-07-15T11:27:20;25.50;91.70
4763;DHT22;2395;50.738;7.122;2022-07-15T11:29:50;25.90;90.50
4763;DHT22;2395;50.738;7.122;2022-07-15T11:32:19;25.40;89.50
4763;DHT22;2395;50.738;7.122;2022-07-15T11:34:49;25.80;89.20
4763;DHT22;2395;50.738;7.122;2022-07-15T11:37:18;26.20;87.40
4763;DHT22;2395;50.738;7.122;2022-07-15T11:40:06;25.40;87.50
4763;DHT22;2395;50.738;7.122;2022-07-15T11:42:38;25.60;86.80
4763;DHT22;2395;50.738;7.122;2022-07-15T11:45:34;25.80;87.10
4763;DHT22;2395;50.738;7.122;2022-07-15T11:48:04;26.00;84.80
4763;DHT22;2395;50.738;7.122;2022-07-15T11:50:33;26.00;84.00
4763;DHT22;2395;50.738;7.122;2022-07-15T11:53:00;25.60;82.90
4763;DHT22;2395;50.738;7.122;2022-07-15T11:55:27;25.50;84.80
4763;DHT22;2395;50.738;7.122;2022-07-15T11:57:56;25.70;83.00
4763;DHT22;2395;50.738;7.122;2022-07-15T12:00:29;24.90;84.50
4763;DHT22;2395;50.738;7.122;2022-07-15T12:03:06;25.10;84.70
4763;DHT22;2395;50.738;7.122;2022-07-15T12:05:33;26.00;83.40
4763;DHT22;2395;50.738;7.122;2022-07-15T12:08:00;26.40;79.70
4763;DHT22;2395;50.738;7.122;2022-07-15T12:10:34;25.90;80.10
4763;DHT22;2395;50.738;7.122;2022-07-15T12:13:04;25.90;79.50
4763;DHT22;2395;50.738;7.122;2022-07-15T12:15:32;25.30;86.20
4763;DHT22;2395;50.738;7.122;2022-07-15T12:18:00;24.00;85.20
4763;DHT22;2395;50.738;7.122;2022-07-15T12:20:28;23.80;88.40
4763;DHT22;2395;50.738;7.122;2022-07-15T12:23:03;24.20;87.30
4763;DHT22;2395;50.738;7.122;2022-07-15T12:25:31;24.40;89.60
4763;DHT22;2395;50.738;7.122;2022-07-15T12:27:58;24.70;86.30
4763;DHT22;2395;50.738;7.122;2022-07-15T12:30:32;24.30;85.30
4763;DHT22;2395;50.738;7.122;2022-07-15T12:33:19;23.80;83.60
4763;DHT22;2395;50.738;7.122;2022-07-15T12:35:47;23.70;85.50
4763;DHT22;2395;50.738;7.122;2022-07-15T12:38:25;23.50;86.30
4763;DHT22;2395;50.738;7.122;2022-07-15T12:40:53;24.70;85.40
4763;DHT22;2395;50.738;7.122;2022-07-15T12:43:47;26.20;83.10
4763;DHT22;2395;50.738;7.122;2022-07-15T12:46:17;27.40;79.70
4763;DHT22;2395;50.738;7.122;2022-07-15T12:48:45;28.20;75.10
4763;DHT22;2395;50.738;7.122;2022-07-15T12:51:14;27.70;75.00
4763;DHT22;2395;50.738;7.122;2022-07-15T12:53:42;27.90;71.80
4763;DHT22;2395;50.738;7.122;2022-07-15T12:56:11;27.40;71.30
4763;DHT22;2395;50.738;7.122;2022-07-15T12:58:38;26.50;72.80
4763;DHT22;2395;50.738;7.122;2022-07-15T13:01:10;26.70;76.20
4763;DHT22;2395;50.738;7.122;2022-07-15T13:03:41;27.30;72.80
4763;DHT22;2395;50.738;7.122;2022-07-15T13:06:08;28.00;69.80
4763;DHT22;2395;50.738;7.122;2022-07-15T13:08:39;28.70;69.80
4763;DHT22;2395;50.738;7.122;2022-07-15T13:11:08;29.10;66.30
4763;DHT22;2395;50.738;7.122;2022-07-15T13:13:38;29.50;65.00
4763;DHT22;2395;50.738;7.122;2022-07-15T13:16:06;29.90;62.90
4763;DHT22;2395;50.738;7.122;2022-07-15T13:18:35;29.90;61.70
4763;DHT22;2395;50.738;7.122;2022-07-15T13:21:04;29.70;62.20
4763;DHT22;2395;50.738;7.122;2022-07-15T13:23:31;29.20;60.00
4763;DHT22;2395;50.738;7.122;2022-07-15T13:25:59;28.70;60.40
4763;DHT22;2395;50.738;7.122;2022-07-15T13:28:27;28.30;62.80
4763;DHT22;2395;50.738;7.122;2022-07-15T13:30:54;29.10;60.60
4763;DHT22;2395;50.738;7.122;2022-07-15T13:33:23;29.90;60.00
4763;DHT22;2395;50.738;7.122;2022-07-15T13:35:50;29.90;58.90
4763;DHT22;2395;50.738;7.122;2022-07-15T13:38:20;30.10;57.70
4763;DHT22;2395;50.738;7.122;2022-07-15T13:40:47;30.80;56.30
4763;DHT22;2395;50.738;7.122;2022-07-15T13:43:14;30.40;56.00
4763;DHT22;2395;50.738;7.122;2022-07-15T13:45:43;30.30;54.80
4763;DHT22;2395;50.738;7.122;2022-07-15T13:48:10;28.60;56.50
4763;DHT22;2395;50.738;7.122;2022-07-15T13:50:38;28.10;57.90
4763;DHT22;2395;50.738;7.122;2022-07-15T13:53:23;27.10;59.50
4763;DHT22;2395;50.738;7.122;2022-07-15T13:55:50;26.50;61.00
4763;DHT22;2395;50.738;7.122;2022-07-15T13:58:17;26.00;61.60
4763;DHT22;2395;50.738;7.122;2022-07-15T14:00:44;26.50;62.50
4763;DHT22;2395;50.738;7.122;2022-07-15T14:03:12;27.60;61.00
4763;DHT22;2395;50.738;7.122;2022-07-15T14:05:39;29.20;58.60
4763;DHT22;2395;50.738;7.122;2022-07-15T14:08:06;30.10;57.30
4763;DHT22;2395;50.738;7.122;2022-07-15T14:10:35;29.80;56.60
4763;DHT22;2395;50.738;7.122;2022-07-15T14:13:02;30.30;56.80
4763;DHT22;2395;50.738;7.122;2022-07-15T14:15:29;30.80;55.70
4763;DHT22;2395;50.738;7.122;2022-07-15T14:17:56;30.60;55.70
4763;DHT22;2395;50.738;7.122;2022-07-15T14:20:23;30.40;56.60
4763;DHT22;2395;50.738;7.122;2022-07-15T14:22:50;30.00;55.80
4763;DHT22;2395;50.738;7.122;2022-07-15T14:25:17;30.70;55.60
4763;DHT22;2395;50.738;7.122;2022-07-15T14:27:46;31.20;55.30
4763;DHT22;2395;50.738;7.122;2022-07-15T14:30:13;31.00;54.70
4763;DHT22;2395;50.738;7.122;2022-07-15T14:32:41;31.70;53.50
4763;DHT22;2395;50.738;7.122;2022-07-15T14:35:09;32.40;53.30
4763;DHT22;2395;50.738;7.122;2022-07-15T14:37:36;32.60;52.60
4763;DHT22;2395;50.738;7.122;2022-07-15T14:40:05;32.10;51.70
4763;DHT22;2395;50.738;7.122;2022-07-15T14:42:34;31.20;52.00
4763;DHT22;2395;50.738;7.122;2022-07-15T14:45:02;31.30;52.30
4763;DHT22;2395;50.738;7.122;2022-07-15T14:47:30;31.90;52.20
4763;DHT22;2395;50.738;7.122;2022-07-15T14:49:57;32.70;51.50
4763;DHT22;2395;50.738;7.122;2022-07-15T14:52:25;33.00;51.30
4763;DHT22;2395;50.738;7.122;2022-07-15T14:54:52;33.00;51.40
4763;DHT22;2395;50.738;7.122;2022-07-15T14:57:19;31.70;51.20
4763;DHT22;2395;50.738;7.122;2022-07-15T14:59:46;31.90;51.40
4763;DHT22;2395;50.738;7.122;2022-07-15T15:02:14;31.80;50.80
4763;DHT22;2395;50.738;7.122;2022-07-15T15:04:41;31.70;51.30
4763;DHT22;2395;50.738;7.122;2022-07-15T15:07:08;32.20;50.80
4763;DHT22;2395;50.738;7.122;2022-07-15T15:09:35;31.50;51.00
4763;DHT22;2395;50.738;7.122;2022-07-15T15:12:02;30.60;51.60
4763;DHT22;2395;50.738;7.122;2022-07-15T15:14:30;29.30;52.90
4763;DHT22;2395;50.738;7.122;2022-07-15T15:16:57;28.50;54.90
4763;DHT22;2395;50.738;7.122;2022-07-15T15:19:25;28.40;55.90
4763;DHT22;2395;50.738;7.122;2022-07-15T15:21:52;27.50;56.20
4763;DHT22;2395;50.738;7.122;2022-07-15T15:24:19;27.10;57.10
4763;DHT22;2395;50.738;7.122;2022-07-15T15:26:47;28.70;56.80
4763;DHT22;2395;50.738;7.122;2022-07-15T15:29:15;29.10;55.40
4763;DHT22;2395;50.738;7.122;2022-07-15T15:31:42;29.10;55.50
4763;DHT22;2395;50.738;7.122;2022-07-15T15:34:09;30.10;54.50
4763;DHT22;2395;50.738;7.122;2022-07-15T15:36:38;29.60;54.00
4763;DHT22;2395;50.738;7.122;2022-07-15T15:39:06;28.80;54.50
4763;DHT22;2395;50.738;7.122;2022-07-15T15:41:34;29.60;54.80
4763;DHT22;2395;50.738;7.122;2022-07-15T15:44:02;30.30;54.40
4763;DHT22;2395;50.738;7.122;2022-07-15T15:46:29;31.00;53.20
4763;DHT22;2395;50.738;7.122;2022-07-15T15:48:56;31.80;52.90
4763;DHT22;2395;50.738;7.122;2022-07-15T15:51:24;31.20;51.80
4763;DHT22;2395;50.738;7.122;2022-07-15T15:53:52;29.40;53.50
4763;DHT22;2395;50.738;7.122;2022-07-15T15:56:20;28.70;54.50
4763;DHT22;2395;50.738;7.122;2022-07-15T15:58:52;27.60;55.50
4763;DHT22;2395;50.738;7.122;2022-07-15T16:01:32;26.80;56.20
4763;DHT22;2395;50.738;7.122;2022-07-15T16:04:10;26.40;57.80
4763;DHT22;2395;50.738;7.122;2022-07-15T16:06:52;26.20;59.00
4763;DHT22;2395;50.738;7.122;2022-07-15T16:09:32;25.90;60.20
4763;DHT22;2395;50.738;7.122;2022-07-15T16:12:01;25.90;59.50
4763;DHT22;2395;50.738;7.122;2022-07-15T16:14:35;26.40;61.20
4763;DHT22;2395;50.738;7.122;2022-07-15T16:17:09;26.70;60.90
4763;DHT22;2395;50.738;7.122;2022-07-15T16:19:41;26.00;59.70
4763;DHT22;2395;50.738;7.122;2022-07-15T16:22:12;25.60;60.30
4763;DHT22;2395;50.738;7.122;2022-07-15T16:25:05;25.40;60.80